createdAt,value
2022-11-14T00:01:26.794Z,3.34
2022-11-14T00:04:13.336Z,3.28
2022-11-14T00:07:02.260Z,3.24
2022-11-14T00:09:48.740Z,3.25
2022-11-14T00:12:35.445Z,3.21
2022-11-14T00:15:22.031Z,3.25
2022-11-14T00:18:10.196Z,3.27
2022-11-14T00:20:56.701Z,3.18
2022-11-14T00:23:43.407Z,3.17
2022-11-14T00:26:30.020Z,3.11
2022-11-14T00:29:16.775Z,3.05
2022-11-14T00:32:03.411Z,3.01
2022-11-14T00:34:50.235Z,3.03
2022-11-14T00:37:36.644Z,2.96
2022-11-14T00:40:23.304Z,2.91
2022-11-14T00:43:09.707Z,2.86
2022-11-14T00:45:56.211Z,2.87
2022-11-14T00:48:43.085Z,2.83
2022-11-14T00:51:29.321Z,2.77
2022-11-14T00:54:15.833Z,2.73
2022-11-14T00:57:02.526Z,2.70
2022-11-14T00:59:48.631Z,2.70
2022-11-14T01:02:35.266Z,2.64
2022-11-14T01:05:21.771Z,2.56
2022-11-14T01:08:08.368Z,2.53
2022-11-14T01:10:54.547Z,2.52
2022-11-14T01:13:41.184Z,2.52
2022-11-14T01:16:27.343Z,2.50
2022-11-14T01:19:13.740Z,2.49
2022-11-14T01:22:04.816Z,2.53
2022-11-14T01:24:52.828Z,2.60
2022-11-14T01:27:39.466Z,2.56
2022-11-14T01:30:25.949Z,2.59
2022-11-14T01:33:12.326Z,2.66
2022-11-14T01:36:00.551Z,2.63
2022-11-14T01:38:47.358Z,2.63
2022-11-14T01:41:34.001Z,2.62
2022-11-14T01:44:47.967Z,2.66
2022-11-14T01:47:34.316Z,2.67
2022-11-14T01:50:20.852Z,2.63
2022-11-14T01:53:07.591Z,2.59
2022-11-14T01:55:57.949Z,2.56
2022-11-14T01:58:48.948Z,2.56
2022-11-14T02:01:49.071Z,2.59
2022-11-14T02:04:39.744Z,2.59
2022-11-14T02:07:30.052Z,2.56
2022-11-14T02:10:19.366Z,2.55
2022-11-14T02:13:06.002Z,2.53
2022-11-14T02:15:52.767Z,2.52
2022-11-14T02:18:42.476Z,2.50
2022-11-14T02:21:28.968Z,2.50
2022-11-14T02:24:15.501Z,2.50
2022-11-14T02:27:04.208Z,2.48
2022-11-14T02:29:50.468Z,2.46
2022-11-14T02:35:43.036Z,2.42
2022-11-14T02:38:29.298Z,2.45
2022-11-14T02:41:15.562Z,2.44
2022-11-14T02:44:02.181Z,2.44
2022-11-14T02:46:48.592Z,2.44
2022-11-14T02:49:35.128Z,2.39
2022-11-14T02:52:21.544Z,2.35
2022-11-14T02:55:08.854Z,2.29
2022-11-14T02:57:55.401Z,2.29
2022-11-14T03:01:06.031Z,2.28
2022-11-14T03:03:48.097Z,2.29
2022-11-14T03:06:34.389Z,2.29
2022-11-14T03:09:21.001Z,2.34
2022-11-14T03:12:07.516Z,2.36
2022-11-14T03:14:54.153Z,2.41
2022-11-14T03:17:41.224Z,2.44
2022-11-14T03:20:27.837Z,2.44
2022-11-14T03:23:14.582Z,2.45
2022-11-14T03:26:07.175Z,2.41
2022-11-14T03:28:55.278Z,2.41
2022-11-14T03:31:41.622Z,2.45
2022-11-14T03:34:28.057Z,2.44
2022-11-14T03:37:14.544Z,2.46
2022-11-14T03:40:00.928Z,2.45
2022-11-14T03:42:47.263Z,2.48
2022-11-14T03:45:34.034Z,2.45
2022-11-14T03:48:20.633Z,2.41
2022-11-14T03:51:07.105Z,2.36
2022-11-14T03:53:53.653Z,2.38
2022-11-14T03:56:40.078Z,2.32
2022-11-14T03:59:26.541Z,2.31
2022-11-14T04:02:13.178Z,2.28
2022-11-14T04:04:59.785Z,2.29
2022-11-14T04:07:46.387Z,2.31
2022-11-14T04:10:33.012Z,2.29
2022-11-14T04:13:19.227Z,2.28
2022-11-14T04:16:05.894Z,2.28
2022-11-14T04:18:52.514Z,2.27
2022-11-14T04:21:39.082Z,2.25
2022-11-14T04:24:25.377Z,2.22
2022-11-14T04:27:11.943Z,2.22
2022-11-14T04:29:58.401Z,2.24
2022-11-14T04:32:47.893Z,2.27
2022-11-14T04:35:34.463Z,2.25
2022-11-14T04:38:20.696Z,2.20
2022-11-14T04:41:07.396Z,2.21
2022-11-14T04:43:53.567Z,2.20
2022-11-14T04:46:39.975Z,2.28
2022-11-14T04:49:26.448Z,2.27
2022-11-14T04:52:12.576Z,2.29
2022-11-14T04:54:58.914Z,2.25
2022-11-14T04:57:45.469Z,2.24
2022-11-14T05:00:32.085Z,2.22
2022-11-14T05:03:18.662Z,2.17
2022-11-14T05:06:05.347Z,2.15
2022-11-14T05:08:51.647Z,2.10
2022-11-14T05:11:38.498Z,2.11
2022-11-14T05:14:24.794Z,2.13
2022-11-14T05:17:11.340Z,2.11
2022-11-14T05:19:57.815Z,2.04
2022-11-14T05:22:44.448Z,2.04
2022-11-14T05:25:30.996Z,2.00
2022-11-14T05:28:17.373Z,2.00
2022-11-14T05:31:19.032Z,1.97
2022-11-14T05:34:05.194Z,1.91
2022-11-14T05:36:54.352Z,1.89
2022-11-14T05:39:40.785Z,1.81
2022-11-14T05:42:28.623Z,1.81
2022-11-14T05:45:14.860Z,1.80
2022-11-14T05:48:24.549Z,1.81
2022-11-14T05:51:12.875Z,1.77
2022-11-14T05:53:59.482Z,1.77
2022-11-14T05:56:46.074Z,1.70
2022-11-14T05:59:32.425Z,1.69
2022-11-14T06:02:18.959Z,1.70
2022-11-14T06:05:05.984Z,1.67
2022-11-14T06:07:57.368Z,1.62
2022-11-14T06:10:43.666Z,1.56
2022-11-14T06:13:31.264Z,1.60
2022-11-14T06:16:19.317Z,1.60
2022-11-14T06:19:05.929Z,1.55
2022-11-14T06:21:52.573Z,1.56
2022-11-14T06:24:39.321Z,1.55
2022-11-14T06:27:25.410Z,1.56
2022-11-14T06:30:12.389Z,1.51
2022-11-14T06:33:00.474Z,1.48
2022-11-14T06:35:46.947Z,1.45
2022-11-14T06:38:35.981Z,1.46
2022-11-14T06:41:23.201Z,1.41
2022-11-14T06:44:09.881Z,1.38
2022-11-14T06:47:03.048Z,1.42
2022-11-14T06:49:49.901Z,1.41
2022-11-14T06:52:37.254Z,1.38
2022-11-14T06:55:25.449Z,1.38
2022-11-14T06:58:13.103Z,1.32
2022-11-14T07:01:08.984Z,1.31
2022-11-14T07:03:58.625Z,1.31
2022-11-14T07:06:45.221Z,1.32
2022-11-14T07:09:31.938Z,1.28
2022-11-14T07:12:18.570Z,1.32
2022-11-14T07:15:05.329Z,1.35
2022-11-14T07:17:54.755Z,1.35
2022-11-14T07:20:41.288Z,1.36
2022-11-14T07:23:28.244Z,1.31
2022-11-14T07:26:14.747Z,1.38
2022-11-14T07:29:02.731Z,1.35
2022-11-14T07:31:50.593Z,1.35
2022-11-14T07:34:37.321Z,1.36
2022-11-14T07:37:24.499Z,1.36
2022-11-14T07:40:11.368Z,1.38
2022-11-14T07:42:59.712Z,1.39
2022-11-14T07:45:46.254Z,1.36
2022-11-14T07:48:33.553Z,1.45
2022-11-14T07:51:21.286Z,1.52
2022-11-14T07:54:10.234Z,1.55
2022-11-14T07:56:56.723Z,1.52
2022-11-14T07:59:43.253Z,1.60
2022-11-14T08:02:29.745Z,1.66
2022-11-14T08:05:16.698Z,1.76
2022-11-14T08:08:04.546Z,1.84
2022-11-14T08:10:50.748Z,1.84
2022-11-14T08:13:37.482Z,1.93
2022-11-14T08:16:24.176Z,1.96
2022-11-14T08:19:10.619Z,2.07
2022-11-14T08:21:57.161Z,2.14
2022-11-14T08:24:43.568Z,2.07
2022-11-14T08:27:29.947Z,2.20
2022-11-14T08:30:16.776Z,2.32
2022-11-14T08:33:17.528Z,2.34
2022-11-14T08:36:08.840Z,2.39
2022-11-14T08:39:00.634Z,2.45
2022-11-14T08:41:48.489Z,2.49
2022-11-14T08:44:35.074Z,2.55
2022-11-14T08:47:21.581Z,2.63
2022-11-14T08:50:08.431Z,2.77
2022-11-14T08:52:54.687Z,2.84
2022-11-14T08:55:45.528Z,2.89
2022-11-14T08:58:33.339Z,2.91
2022-11-14T09:01:20.000Z,2.98
2022-11-14T09:04:06.663Z,3.01
2022-11-14T09:06:53.275Z,3.07
2022-11-14T09:09:39.642Z,3.11
2022-11-14T09:12:26.210Z,3.18
2022-11-14T09:15:12.708Z,3.34
2022-11-14T09:17:59.386Z,3.42
2022-11-14T09:20:45.569Z,3.52
2022-11-14T09:23:32.832Z,3.55
2022-11-14T09:26:19.506Z,3.66
2022-11-14T09:29:06.513Z,3.76
2022-11-14T09:31:55.138Z,3.86
2022-11-14T09:34:44.772Z,3.93
2022-11-14T09:37:31.384Z,4.00
2022-11-14T09:40:18.332Z,4.05
2022-11-14T09:43:30.838Z,4.22
2022-11-14T09:46:22.404Z,4.28
2022-11-14T09:49:34.921Z,4.36
2022-11-14T09:52:31.812Z,4.53
2022-11-14T09:55:35.217Z,4.63
2022-11-14T09:58:23.121Z,4.74
2022-11-14T10:01:26.088Z,4.90
2022-11-14T10:04:33.738Z,5.08
2022-11-14T10:07:57.243Z,5.31
2022-11-14T10:10:54.267Z,5.49
2022-11-14T10:14:09.009Z,5.67
2022-11-14T10:16:58.416Z,5.77
2022-11-14T10:20:03.183Z,5.91
2022-11-14T10:23:01.804Z,6.00
2022-11-14T10:26:12.774Z,6.18
2022-11-14T10:29:29.255Z,6.30
2022-11-14T10:32:39.701Z,6.47
2022-11-14T10:35:45.797Z,6.62
2022-11-14T10:38:38.756Z,6.70
2022-11-14T10:41:50.324Z,6.85
2022-11-14T10:44:42.234Z,6.94
2022-11-14T10:47:36.778Z,7.04
2022-11-14T10:50:39.668Z,7.15
2022-11-14T10:53:44.533Z,7.15
2022-11-14T10:56:31.045Z,7.33
2022-11-14T10:59:18.310Z,7.47
2022-11-14T11:02:05.115Z,7.50
2022-11-14T11:04:51.653Z,7.53
2022-11-14T11:08:28.271Z,7.62
2022-11-14T11:11:30.153Z,7.64
2022-11-14T11:14:19.676Z,7.80
2022-11-14T11:17:20.827Z,7.90
2022-11-14T11:20:33.698Z,7.97
2022-11-14T11:23:28.338Z,8.01
2022-11-14T11:26:19.884Z,7.99
2022-11-14T11:29:10.855Z,7.97
2022-11-14T11:31:59.311Z,7.99
2022-11-14T11:34:46.394Z,8.08
2022-11-14T11:37:34.757Z,8.12
2022-11-14T11:40:28.235Z,8.12
2022-11-14T11:43:55.497Z,8.13
2022-11-14T11:47:01.249Z,8.16
2022-11-14T11:49:53.893Z,8.24
2022-11-14T11:53:12.598Z,8.26
2022-11-14T11:56:11.339Z,8.22
2022-11-14T11:59:45.445Z,8.18
2022-11-14T12:02:32.243Z,8.28
2022-11-14T12:05:25.953Z,8.29
2022-11-14T12:08:41.304Z,8.36
2022-11-14T12:11:31.469Z,8.39
2022-11-14T12:14:46.613Z,8.50
2022-11-14T12:17:56.986Z,8.53
2022-11-14T12:21:02.363Z,8.40
2022-11-14T12:24:07.274Z,8.42
2022-11-14T12:27:20.252Z,8.38
2022-11-14T12:30:18.357Z,8.32
2022-11-14T12:33:34.277Z,8.25
2022-11-14T12:36:26.917Z,8.22
2022-11-14T12:39:28.214Z,8.30
2022-11-14T12:42:21.172Z,8.43
2022-11-14T12:45:36.699Z,8.54
2022-11-14T12:48:25.949Z,8.64
2022-11-14T12:51:27.797Z,8.70
2022-11-14T12:54:46.995Z,8.81
2022-11-14T12:57:47.893Z,8.83
2022-11-14T13:00:46.417Z,8.88
2022-11-14T13:04:04.805Z,8.85
2022-11-14T13:07:16.521Z,8.91
2022-11-14T13:10:12.709Z,8.81
2022-11-14T13:13:23.568Z,8.78
2022-11-14T13:16:43.860Z,8.80
2022-11-14T13:20:05.579Z,8.80
2022-11-14T13:22:51.978Z,8.77
2022-11-14T13:25:38.381Z,8.83
2022-11-14T13:28:47.883Z,8.83
2022-11-14T13:31:37.397Z,8.75
2022-11-14T13:34:56.963Z,8.74
2022-11-14T13:37:49.107Z,8.73
2022-11-14T13:40:48.621Z,8.74
2022-11-14T13:43:53.350Z,8.71
2022-11-14T13:47:02.606Z,8.64
2022-11-14T13:50:11.721Z,8.59
2022-11-14T13:52:58.631Z,8.54
2022-11-14T13:56:04.503Z,8.54
2022-11-14T13:58:56.847Z,8.49
2022-11-14T14:02:21.922Z,8.52
2022-11-14T14:05:14.178Z,8.45
2022-11-14T14:08:33.510Z,8.45
2022-11-14T14:11:46.379Z,8.42
2022-11-14T14:14:51.317Z,8.38
2022-11-14T14:17:59.753Z,8.30
2022-11-14T14:20:48.907Z,8.26
2022-11-14T14:24:01.108Z,8.19
2022-11-14T14:26:59.746Z,8.19
2022-11-14T14:29:56.931Z,8.21
2022-11-14T14:32:43.243Z,8.15
2022-11-14T14:35:37.241Z,8.13
2022-11-14T14:38:29.166Z,8.15
2022-11-14T14:41:18.561Z,8.12
2022-11-14T14:44:05.860Z,8.13
2022-11-14T14:46:52.731Z,8.12
2022-11-14T14:49:39.584Z,8.08
2022-11-14T14:52:37.550Z,8.08
2022-11-14T14:55:35.301Z,8.11
2022-11-14T14:58:27.750Z,8.09
2022-11-14T15:01:16.990Z,8.13
2022-11-14T15:04:07.249Z,8.08
2022-11-14T15:06:58.254Z,8.11
2022-11-14T15:10:02.534Z,8.12
2022-11-14T15:12:49.693Z,8.13
2022-11-14T15:15:38.345Z,8.16
2022-11-14T15:18:28.430Z,8.15
2022-11-14T15:21:21.615Z,8.15
2022-11-14T15:24:18.193Z,8.13
2022-11-14T15:27:11.662Z,8.16
2022-11-14T15:30:01.853Z,8.16
2022-11-14T15:32:51.030Z,8.21
2022-11-14T15:35:39.619Z,8.19
2022-11-14T15:38:43.520Z,8.26
2022-11-14T15:41:32.777Z,8.25
2022-11-14T15:44:33.802Z,8.22
2022-11-14T15:47:29.429Z,8.22
2022-11-14T15:50:15.919Z,8.25
2022-11-14T15:53:05.825Z,8.25
2022-11-14T15:55:52.372Z,8.25
2022-11-14T15:58:38.952Z,8.26
2022-11-14T16:01:28.587Z,8.30
2022-11-14T16:04:23.299Z,8.28
2022-11-14T16:07:14.478Z,8.28
2022-11-14T16:10:01.976Z,8.36
2022-11-14T16:12:52.391Z,8.33
2022-11-14T16:15:39.463Z,8.39
2022-11-14T16:18:25.943Z,8.45
2022-11-14T16:21:17.275Z,8.42
2022-11-14T16:24:03.840Z,8.45
2022-11-14T16:26:50.579Z,8.43
2022-11-14T16:29:39.557Z,8.45
2022-11-14T16:32:28.247Z,8.38
2022-11-14T16:35:15.479Z,8.42
2022-11-14T16:38:01.884Z,8.40
2022-11-14T16:40:50.421Z,8.40
2022-11-14T16:43:36.767Z,8.45
2022-11-14T16:46:24.082Z,8.52
2022-11-14T16:49:17.765Z,8.57
2022-11-14T16:52:08.630Z,8.59
2022-11-14T16:54:55.110Z,8.61
2022-11-14T16:57:41.798Z,8.66
2022-11-14T17:00:28.383Z,8.67
2022-11-14T17:03:15.399Z,8.64
2022-11-14T17:06:02.175Z,8.66
2022-11-14T17:08:53.083Z,8.70
2022-11-14T17:11:39.598Z,8.64
2022-11-14T17:14:26.095Z,8.59
2022-11-14T17:17:12.688Z,8.54
2022-11-14T17:19:59.989Z,8.49
2022-11-14T17:22:46.325Z,8.50
2022-11-14T17:25:32.924Z,8.46
2022-11-14T17:28:19.259Z,8.39
2022-11-14T17:31:09.486Z,8.40
2022-11-14T17:33:57.345Z,8.38
2022-11-14T17:36:43.552Z,8.35
2022-11-14T17:39:30.265Z,8.33
2022-11-14T17:42:16.480Z,8.26
2022-11-14T17:45:03.068Z,8.25
2022-11-14T17:47:49.246Z,8.22
2022-11-14T17:50:39.851Z,8.26
2022-11-14T17:53:26.439Z,8.25
2022-11-14T17:56:24.652Z,8.24
2022-11-14T17:59:10.728Z,8.28
2022-11-14T18:02:00.042Z,8.25
2022-11-14T18:04:47.959Z,8.25
2022-11-14T18:07:34.238Z,8.21
2022-11-14T18:10:20.943Z,8.22
2022-11-14T18:13:08.460Z,8.22
2022-11-14T18:15:54.874Z,8.22
2022-11-14T18:18:41.810Z,8.21
2022-11-14T18:21:28.238Z,8.24
2022-11-14T18:24:15.078Z,8.25
2022-11-14T18:27:01.485Z,8.26
2022-11-14T18:29:48.540Z,8.24
2022-11-14T18:32:35.129Z,8.21
2022-11-14T18:35:21.709Z,8.22
2022-11-14T18:38:08.636Z,8.24
2022-11-14T18:40:57.524Z,8.22
2022-11-14T18:43:45.037Z,8.24
2022-11-14T18:46:37.206Z,8.22
2022-11-14T18:49:25.151Z,8.29
2022-11-14T18:52:16.896Z,8.26
2022-11-14T18:55:04.898Z,8.29
2022-11-14T18:57:52.109Z,8.26
2022-11-14T19:00:38.562Z,8.22
2022-11-14T19:03:25.536Z,8.24
2022-11-14T19:06:17.210Z,8.25
2022-11-14T19:09:18.187Z,8.26
2022-11-14T19:12:22.041Z,8.26
2022-11-14T19:15:09.388Z,8.29
2022-11-14T19:17:56.096Z,8.30
2022-11-14T19:20:42.430Z,8.26
2022-11-14T19:23:30.231Z,8.24
2022-11-14T19:26:17.376Z,8.25
2022-11-14T19:29:06.441Z,8.18
2022-11-14T19:31:54.552Z,8.08
2022-11-14T19:34:41.463Z,7.94
2022-11-14T19:37:28.308Z,7.88
2022-11-14T19:40:15.018Z,7.83
2022-11-14T19:43:04.019Z,7.80
2022-11-14T19:45:50.780Z,7.74
2022-11-14T19:48:38.558Z,7.73
2022-11-14T19:51:26.137Z,7.69
2022-11-14T19:54:16.142Z,7.66
2022-11-14T19:57:02.520Z,7.59
2022-11-14T19:59:49.528Z,7.49
2022-11-14T20:02:40.487Z,7.46
2022-11-14T20:05:27.332Z,7.39
2022-11-14T20:08:13.962Z,7.33
2022-11-14T20:11:02.828Z,7.25
2022-11-14T20:13:53.011Z,7.19
2022-11-14T20:16:39.842Z,7.12
2022-11-14T20:19:27.698Z,7.05
2022-11-14T20:22:14.599Z,7.00
2022-11-14T20:25:01.077Z,6.97
2022-11-14T20:27:49.048Z,6.90
2022-11-14T20:30:40.231Z,6.90
2022-11-14T20:33:26.815Z,6.88
2022-11-14T20:36:16.833Z,6.81
2022-11-14T20:39:09.463Z,6.76
2022-11-14T20:41:58.111Z,6.77
2022-11-14T20:44:44.918Z,6.70
2022-11-14T20:47:31.764Z,6.69
2022-11-14T20:50:18.678Z,6.67
2022-11-14T20:53:05.986Z,6.62
2022-11-14T20:55:53.920Z,6.58
2022-11-14T20:58:45.303Z,6.52
2022-11-14T21:01:32.166Z,6.49
2022-11-14T21:04:19.457Z,6.45
2022-11-14T21:07:06.343Z,6.45
2022-11-14T21:10:18.697Z,6.42
2022-11-14T21:13:27.214Z,6.38
2022-11-14T21:16:21.690Z,6.28
2022-11-14T21:19:09.205Z,6.19
2022-11-14T21:21:56.526Z,6.18
2022-11-14T21:24:43.234Z,6.12
2022-11-14T21:27:30.084Z,6.10
2022-11-14T21:30:17.279Z,6.10
2022-11-14T21:33:04.394Z,6.02
2022-11-14T21:35:53.072Z,6.02
2022-11-14T21:38:40.969Z,5.94
2022-11-14T21:41:30.727Z,5.95
2022-11-14T21:44:18.085Z,6.00
2022-11-14T21:47:07.135Z,5.93
2022-11-14T21:50:00.900Z,5.90
2022-11-14T21:52:48.494Z,5.83
2022-11-14T21:55:35.396Z,5.84
2022-11-14T21:58:22.020Z,5.84
2022-11-14T22:01:14.449Z,5.84
2022-11-14T22:04:13.150Z,5.94
2022-11-14T22:07:05.331Z,6.05
2022-11-14T22:09:52.655Z,6.11
2022-11-14T22:12:42.849Z,6.17
2022-11-14T22:15:29.454Z,6.19
2022-11-14T22:18:16.357Z,6.26
2022-11-14T22:21:03.195Z,6.29
2022-11-14T22:23:52.339Z,6.29
2022-11-14T22:26:40.161Z,6.35
2022-11-14T22:29:26.788Z,6.35
2022-11-14T22:32:12.909Z,6.39
2022-11-14T22:35:06.757Z,6.42
2022-11-14T22:37:53.086Z,6.50
2022-11-14T22:40:39.648Z,6.49
2022-11-14T22:43:27.533Z,6.53
2022-11-14T22:46:17.191Z,6.54
2022-11-14T22:49:08.563Z,6.56
2022-11-14T22:51:55.494Z,6.57
2022-11-14T22:54:42.479Z,6.58
2022-11-14T22:57:29.331Z,6.60
2022-11-14T23:00:18.745Z,6.64
2022-11-14T23:03:05.386Z,6.69
2022-11-14T23:05:53.575Z,6.70
2022-11-14T23:08:40.812Z,6.73
2022-11-14T23:11:30.146Z,6.79
2022-11-14T23:14:16.934Z,6.79
2022-11-14T23:17:04.286Z,6.84
2022-11-14T23:19:50.778Z,6.85
2022-11-14T23:22:37.514Z,6.87
2022-11-14T23:25:24.605Z,6.94
2022-11-14T23:28:11.641Z,6.94
2022-11-14T23:30:59.621Z,6.97
2022-11-14T23:33:51.701Z,6.97
2022-11-14T23:36:38.707Z,6.95
2022-11-14T23:39:25.062Z,7.00
2022-11-14T23:42:11.619Z,7.02
2022-11-14T23:44:58.271Z,7.00
2022-11-14T23:47:44.704Z,7.02
2022-11-14T23:50:31.218Z,7.02
2022-11-14T23:53:17.424Z,7.04
2022-11-14T23:56:04.373Z,7.05
2022-11-14T23:58:50.919Z,7.05
